Cottonville, North Carolina
Current Conditions -  °F | °C
As of 3:15 PM on Monday 26 Jan 2015 (Local Time) from KVUJ Reporting Station
Drizzle Drizzle  
Wind Chill: 44°   Ceiling: 5000
Heat Index: 46°   Visibility: 10mi
Dew Point: 41°   Wind: 5mph
Humidity: 80%   Direction: 330°NNW
Pressure: 29.65"   Gusts: NA
Location:  35.2152°N, 80.1663°W
Report Text: KVUJ 262015Z AUTO 33004KT 10SM -DZ SCT047 BKN050 OVC060 08/05 A2965 RMK AO2 LTG DSNT E T00800048
Loading
Personal Weather Stations






























Interactive Weather Map New forecast layout! Learn more

10-Day Weather Forecast

Advertisements
Track Severe Weather on mobile